Time;durP1;ratioP1;P1;durP2;ratioP2;P2;SDS_P1;SDS_P2;PMS_P1;PMS_P2;Temp;Humidity;BMP_temperature;BMP_pressure;BME280_temperature;BME280_humidity;BME280_pressure;Samples;Min_cycle;Max_cycle;Signal;HPM_P1;HPM_P2
2024/03/06 00:02:32;;;;;;;8.77;5.43;;;;;;;9.43;100.00;99738.00;6351613;27;20483;-74
2024/03/06 00:05:33;;;;;;;10.65;5.80;;;;;;;9.49;100.00;99745.44;6372736;27;20051;-74
2024/03/06 00:08:34;;;;;;;11.43;6.20;;;;;;;9.37;100.00;99741.84;6370146;27;20707;-74
2024/03/06 00:11:38;;;;;;;10.45;5.68;;;;;;;9.42;100.00;99739.75;6385842;27;20079;-74
2024/03/06 00:14:39;;;;;;;10.20;5.63;;;;;;;9.40;100.00;99752.03;6374781;27;20047;-74
2024/03/06 00:17:41;;;;;;;15.52;5.95;;;;;;;9.21;100.00;99751.50;6393001;27;20415;-74
2024/03/06 00:20:42;;;;;;;12.50;6.35;;;;;;;9.22;100.00;99756.59;6381229;27;20051;-74
2024/03/06 00:23:45;;;;;;;13.50;6.77;;;;;;;9.23;100.00;99753.06;6374812;27;20452;-74
2024/03/06 00:26:47;;;;;;;11.18;6.32;;;;;;;9.26;100.00;99746.84;6366703;27;20275;-74
2024/03/06 00:29:47;;;;;;;10.10;6.22;;;;;;;9.25;100.00;99746.00;6360677;27;20384;-74
2024/03/06 00:32:49;;;;;;;9.98;5.68;;;;;;;9.23;100.00;99741.84;6363446;27;20418;-74
2024/03/06 00:35:49;;;;;;;12.70;6.03;;;;;;;9.13;100.00;99745.91;6368861;27;20462;-74
2024/03/06 00:38:50;;;;;;;12.52;5.82;;;;;;;9.11;100.00;99752.97;6370620;27;20483;-74
2024/03/06 00:41:51;;;;;;;13.32;6.20;;;;;;;9.04;100.00;99749.91;6374105;27;20055;-74
2024/03/06 00:44:52;;;;;;;9.05;5.45;;;;;;;8.93;100.00;99749.69;6360265;27;20456;-74
2024/03/06 00:47:53;;;;;;;9.65;5.43;;;;;;;8.88;100.00;99753.41;6365272;27;20411;-74
2024/03/06 00:50:54;;;;;;;10.88;6.22;;;;;;;8.88;100.00;99750.81;6378712;27;20398;-74
2024/03/06 00:53:55;;;;;;;11.70;5.85;;;;;;;8.71;100.00;99747.50;6374346;27;20051;-74
2024/03/06 00:56:57;;;;;;;11.93;6.70;;;;;;;8.61;100.00;99742.84;6358770;27;20054;-74
2024/03/06 00:59:58;;;;;;;10.10;5.75;;;;;;;8.54;100.00;99731.09;6349191;27;20149;-74
2024/03/06 01:02:59;;;;;;;11.48;6.22;;;;;;;8.44;100.00;99729.97;6374341;27;20051;-74
2024/03/06 01:06:00;;;;;;;12.05;6.40;;;;;;;8.36;100.00;99737.31;6374840;27;20481;-74
2024/03/06 01:09:03;;;;;;;12.50;5.78;;;;;;;8.52;100.00;99737.31;6366830;27;20051;-74
2024/03/06 01:12:08;;;;;;;10.65;6.05;;;;;;;8.50;100.00;99740.00;6371807;27;20125;-74
2024/03/06 01:15:09;;;;;;;10.48;5.68;;;;;;;8.45;100.00;99753.28;6371429;27;20419;-73
2024/03/06 01:18:10;;;;;;;10.35;5.90;;;;;;;8.40;100.00;99741.44;6370376;27;20070;-74
2024/03/06 01:21:11;;;;;;;11.88;6.55;;;;;;;8.44;100.00;99750.75;6379103;27;20511;-74
2024/03/06 01:24:12;;;;;;;11.50;5.70;;;;;;;8.46;100.00;99735.91;6371237;27;20151;-74
2024/03/06 01:27:13;;;;;;;11.15;6.45;;;;;;;8.42;100.00;99750.88;6361679;27;20510;-74
2024/03/06 01:30:14;;;;;;;12.77;6.75;;;;;;;8.56;100.00;99744.84;6348412;28;20418;-74
2024/03/06 01:33:14;;;;;;;17.60;6.82;;;;;;;8.45;100.00;99737.69;6365123;27;20422;-74
2024/03/06 01:36:15;;;;;;;13.63;6.82;;;;;;;8.49;100.00;99743.56;6366439;27;20138;-74
2024/03/06 01:39:16;;;;;;;15.30;6.85;;;;;;;8.42;100.00;99742.22;6381363;27;20490;-74
2024/03/06 01:42:18;;;;;;;14.05;7.22;;;;;;;8.44;100.00;99737.75;6397910;27;20089;-74
2024/03/06 01:45:21;;;;;;;14.82;7.10;;;;;;;8.32;100.00;99752.28;6368594;27;20047;-67
2024/03/06 01:48:28;;;;;;;14.35;7.45;;;;;;;8.10;100.00;99755.22;6368023;27;20085;-68
2024/03/06 01:51:28;;;;;;;13.18;5.88;;;;;;;8.03;100.00;99756.47;6369004;27;20537;-68
2024/03/06 01:54:31;;;;;;;12.07;6.57;;;;;;;7.98;100.00;99758.50;6382533;27;20051;-68
2024/03/06 01:57:34;;;;;;;14.27;6.57;;;;;;;7.90;100.00;99758.09;6360782;27;20046;-73
2024/03/06 02:00:36;;;;;;;13.43;6.47;;;;;;;7.79;100.00;99751.72;6368761;27;20046;-73
2024/03/06 02:03:37;;;;;;;11.57;6.35;;;;;;;7.76;100.00;99757.09;6367507;27;20047;-74
2024/03/06 02:06:41;;;;;;;16.13;6.88;;;;;;;7.78;100.00;99746.59;6361225;27;20050;-73
2024/03/06 02:09:43;;;;;;;16.80;7.50;;;;;;;7.98;100.00;99750.72;6371817;27;20043;-74
2024/03/06 02:12:45;;;;;;;16.02;6.90;;;;;;;7.94;100.00;99757.00;6384838;27;20047;-74
2024/03/06 02:15:46;;;;;;;;;;;;;;;7.91;100.00;99760.63;6351755;27;20059;-74
2024/03/06 02:18:54;;;;;;;14.00;6.63;;;;;;;7.88;100.00;99765.97;6364110;27;20018;-74
2024/03/06 02:21:55;;;;;;;15.13;6.32;;;;;;;7.90;100.00;99755.50;6367343;27;20043;-74
2024/03/06 02:24:56;;;;;;;12.85;7.18;;;;;;;7.83;100.00;99752.41;6375588;27;20062;-74
2024/03/06 02:27:58;;;;;;;12.70;6.95;;;;;;;7.65;100.00;99746.44;6374751;27;20050;-73
2024/03/06 02:30:59;;;;;;;13.77;6.30;;;;;;;7.85;100.00;99755.75;6378996;27;20051;-74
2024/03/06 02:34:04;;;;;;;10.95;6.55;;;;;;;7.84;100.00;99757.53;6368341;27;20120;-73
2024/03/06 02:37:05;;;;;;;13.27;6.68;;;;;;;7.75;100.00;99750.22;6362117;27;20564;-73
2024/03/06 02:40:09;;;;;;;12.02;7.07;;;;;;;7.71;100.00;99755.66;6366485;27;20050;-73
2024/03/06 02:43:10;;;;;;;15.43;7.20;;;;;;;7.70;100.00;99753.97;6365871;27;20525;-74
2024/03/06 02:46:11;;;;;;;13.48;6.10;;;;;;;7.75;100.00;99749.38;6350306;27;20051;-73
2024/03/06 02:49:13;;;;;;;12.43;7.15;;;;;;;7.85;100.00;99750.56;6367205;27;20102;-73
2024/03/06 02:52:14;;;;;;;15.77;6.35;;;;;;;7.75;100.00;99755.41;6362722;27;20043;-68
2024/03/06 02:55:15;;;;;;;14.43;6.82;;;;;;;7.82;100.00;99745.50;6358973;27;20059;-68
2024/03/06 02:58:18;;;;;;;11.35;6.22;;;;;;;7.78;100.00;99746.59;6362597;27;20047;-68
2024/03/06 03:01:19;;;;;;;13.48;5.97;;;;;;;7.75;100.00;99755.41;6366433;27;20048;-68
2024/03/06 03:04:20;;;;;;;14.75;7.65;;;;;;;7.82;100.00;99754.16;6355563;27;20050;-68
2024/03/06 03:07:21;;;;;;;11.50;6.80;;;;;;;7.79;100.00;99748.28;6363749;27;20048;-68
2024/03/06 03:10:24;;;;;;;13.85;6.38;;;;;;;7.73;100.00;99756.41;6365303;27;20130;-67
2024/03/06 03:13:25;;;;;;;10.80;6.25;;;;;;;7.64;100.00;99749.97;6366850;28;20130;-73
2024/03/06 03:16:26;;;;;;;14.85;7.55;;;;;;;7.70;100.00;99752.22;6379957;27;20418;-73
2024/03/06 03:19:27;;;;;;;12.40;7.50;;;;;;;8.00;100.00;99747.09;6388822;27;20059;-74
2024/03/06 03:22:28;;;;;;;11.68;6.80;;;;;;;7.76;100.00;99744.13;6353167;27;20047;-68
2024/03/06 03:25:29;;;;;;;16.17;7.05;;;;;;;7.84;100.00;99746.28;6371525;27;20061;-68
2024/03/06 03:28:30;;;;;;;17.63;7.30;;;;;;;7.88;100.00;99743.41;6362215;27;20158;-69
2024/03/06 03:31:31;;;;;;;14.48;7.18;;;;;;;7.77;100.00;99756.16;6375519;27;20058;-68
2024/03/06 03:34:36;;;;;;;11.98;7.03;;;;;;;7.91;100.00;99755.41;6374113;27;20082;-68
2024/03/06 03:37:37;;;;;;;14.02;6.75;;;;;;;8.07;100.00;99740.66;6395950;27;20079;-68
2024/03/06 03:40:38;;;;;;;14.75;7.18;;;;;;;7.68;100.00;99748.88;6372961;27;20059;-68
2024/03/06 03:43:42;;;;;;;13.93;7.40;;;;;;;7.69;100.00;99752.31;6352831;27;20131;-68
2024/03/06 03:46:43;;;;;;;12.88;5.88;;;;;;;7.84;100.00;99754.06;6375082;27;20498;-68
2024/03/06 03:49:44;;;;;;;12.80;7.00;;;;;;;7.81;100.00;99757.66;6366637;27;20050;-68
2024/03/06 03:52:45;;;;;;;14.88;7.13;;;;;;;7.76;100.00;99758.84;6361521;27;20486;-68
2024/03/06 03:55:46;;;;;;;14.48;7.63;;;;;;;7.79;100.00;99754.31;6374178;27;20054;-68
2024/03/06 03:58:49;;;;;;;13.77;6.68;;;;;;;7.64;100.00;99756.00;6377344;27;20055;-68
2024/03/06 04:01:52;;;;;;;15.75;6.65;;;;;;;7.94;100.00;99757.00;6364787;27;20091;-68
2024/03/06 04:04:52;;;;;;;14.40;6.82;;;;;;;7.57;100.00;99759.81;6368535;27;20072;-67
2024/03/06 04:07:53;;;;;;;10.38;6.50;;;;;;;7.56;100.00;99755.56;6364190;27;20138;-68
2024/03/06 04:10:54;;;;;;;16.15;7.82;;;;;;;7.59;100.00;99772.72;6363720;27;20047;-67
2024/03/06 04:13:55;;;;;;;14.20;6.57;;;;;;;7.63;100.00;99759.50;6371618;27;20053;-67
2024/03/06 04:16:56;;;;;;;12.13;6.30;;;;;;;7.64;100.00;99768.16;6368148;27;20436;-67
2024/03/06 04:19:57;;;;;;;12.00;6.63;;;;;;;7.62;100.00;99772.56;6363474;27;20491;-67
2024/03/06 04:22:58;;;;;;;16.55;6.63;;;;;;;7.51;100.00;99772.28;6373526;27;20047;-68
2024/03/06 04:26:00;;;;;;;14.00;7.00;;;;;;;7.57;100.00;99780.59;6368416;27;20159;-68
2024/03/06 04:29:02;;;;;;;13.52;6.80;;;;;;;7.73;100.00;99779.78;6383059;27;20133;-68
2024/03/06 04:32:03;;;;;;;14.25;7.10;;;;;;;7.77;100.00;99783.91;6366376;27;20411;-68
2024/03/06 04:35:05;;;;;;;15.48;6.70;;;;;;;7.69;100.00;99776.50;6363939;27;20039;-68
2024/03/06 04:38:08;;;;;;;12.02;6.05;;;;;;;7.70;100.00;99785.13;6373026;27;20043;-73
2024/03/06 04:41:10;;;;;;;18.55;7.28;;;;;;;7.62;100.00;99783.78;6362635;27;20555;-74
2024/03/06 04:44:11;;;;;;;14.80;6.70;;;;;;;7.49;100.00;99787.94;6366747;27;20505;-74
2024/03/06 04:47:12;;;;;;;14.85;6.60;;;;;;;7.52;100.00;99793.00;6371514;27;20039;-74
2024/03/06 04:50:14;;;;;;;11.07;6.25;;;;;;;7.51;100.00;99790.47;6364536;27;20516;-74
2024/03/06 04:53:14;;;;;;;11.43;5.38;;;;;;;7.30;100.00;99790.66;6373756;27;20437;-74
2024/03/06 04:56:18;;;;;;;17.75;6.93;;;;;;;7.34;100.00;99802.56;6367978;27;20078;-74
2024/03/06 04:59:21;;;;;;;10.60;6.05;;;;;;;7.21;100.00;99796.34;6377389;27;20073;-74
2024/03/06 05:02:25;;;;;;;13.52;6.50;;;;;;;7.34;100.00;99794.78;6364974;27;20471;-74
2024/03/06 05:05:26;;;;;;;16.17;6.75;;;;;;;7.48;100.00;99799.25;6378823;27;20042;-74
2024/03/06 05:08:29;;;;;;;13.13;5.97;;;;;;;7.39;100.00;99799.72;6380484;27;20100;-74
2024/03/06 05:11:31;;;;;;;11.25;5.80;;;;;;;7.29;100.00;99801.97;6369374;27;20039;-74
2024/03/06 05:14:32;;;;;;;17.95;7.00;;;;;;;7.28;100.00;99805.47;6363253;27;20047;-74
2024/03/06 05:17:37;;;;;;;16.95;6.30;;;;;;;7.32;100.00;99809.59;6358822;27;20434;-74
2024/03/06 05:20:38;;;;;;;13.57;5.93;;;;;;;7.45;100.00;99815.84;6377363;27;20039;-74
2024/03/06 05:23:39;;;;;;;12.65;7.10;;;;;;;7.51;100.00;99808.63;6371388;27;20050;-74
2024/03/06 05:26:40;;;;;;;13.35;6.15;;;;;;;7.44;100.00;99811.56;6365746;27;20057;-74
2024/03/06 05:29:40;;;;;;;9.65;5.80;;;;;;;7.43;100.00;99809.88;6369077;27;20058;-74
2024/03/06 05:32:41;;;;;;;11.35;5.55;;;;;;;7.48;100.00;99827.81;6356384;27;20050;-74
2024/03/06 05:35:45;;;;;;;10.23;5.93;;;;;;;7.45;100.00;99825.38;6359220;27;20459;-74
2024/03/06 05:38:45;;;;;;;18.33;8.25;;;;;;;7.40;100.00;99829.97;6373002;27;20463;-74
2024/03/06 05:41:46;;;;;;;14.55;7.75;;;;;;;7.18;100.00;99831.03;6364644;27;20048;-74
2024/03/06 05:44:48;;;;;;;15.32;6.70;;;;;;;7.40;100.00;99825.59;6362447;27;20055;-74
2024/03/06 05:47:51;;;;;;;14.35;6.15;;;;;;;7.40;100.00;99846.38;6365756;27;20047;-74
2024/03/06 05:50:53;;;;;;;11.65;6.45;;;;;;;7.65;100.00;99847.72;6373339;27;20076;-75
2024/03/06 05:53:54;;;;;;;12.68;6.10;;;;;;;7.62;100.00;99843.53;6374419;27;20550;-74
2024/03/06 05:56:54;;;;;;;10.02;5.55;;;;;;;7.87;100.00;99850.03;6374081;27;20051;-68
2024/03/06 05:59:56;;;;;;;13.63;6.68;;;;;;;7.70;100.00;99844.88;6373156;27;20134;-69
2024/03/06 06:02:57;;;;;;;18.80;7.90;;;;;;;7.68;100.00;99839.78;6374082;27;20467;-69
2024/03/06 06:05:58;;;;;;;16.58;6.00;;;;;;;7.84;100.00;99839.78;6373407;27;20047;-68
2024/03/06 06:08:59;;;;;;;10.05;5.65;;;;;;;8.02;100.00;99850.97;6373012;27;20055;-74
2024/03/06 06:12:00;;;;;;;12.02;5.95;;;;;;;7.97;100.00;99845.16;6351469;27;20533;-74
2024/03/06 06:15:02;;;;;;;11.27;5.30;;;;;;;7.99;100.00;99851.09;6356887;27;20489;-73
2024/03/06 06:18:03;;;;;;;21.10;6.10;;;;;;;8.05;100.00;99854.25;6391171;27;20077;-74
2024/03/06 06:21:07;;;;;;;9.80;5.30;;;;;;;8.18;100.00;99856.19;6397545;27;20046;-74
2024/03/06 06:24:08;;;;;;;12.07;5.13;;;;;;;8.23;100.00;99857.59;6394249;27;20051;-68
2024/03/06 06:27:08;;;;;;;12.02;5.70;;;;;;;8.32;100.00;99861.47;6371525;27;20477;-68
2024/03/06 06:30:12;;;;;;;19.60;5.95;;;;;;;8.49;100.00;99851.94;6405970;27;20486;-68
2024/03/06 06:33:13;;;;;;;11.50;5.72;;;;;;;8.23;100.00;99848.94;6363296;27;20498;-68
2024/03/06 06:36:14;;;;;;;17.45;7.75;;;;;;;8.37;100.00;99856.00;6396967;27;20054;-69
2024/03/06 06:39:16;;;;;;;19.13;6.97;;;;;;;8.45;100.00;99854.69;6397883;27;20042;-68
2024/03/06 06:42:17;;;;;;;;;;;;;;;8.50;100.00;99867.44;6398342;27;20497;-74
2024/03/06 06:45:19;;;;;;;11.35;5.50;;;;;;;8.53;100.00;99859.47;6397845;27;19926;-75
2024/03/06 06:48:20;;;;;;;11.85;6.28;;;;;;;8.87;100.00;99865.38;6396500;27;20043;-75
2024/03/06 06:51:23;;;;;;;14.80;7.18;;;;;;;9.10;100.00;99865.81;6397730;27;20454;-68
2024/03/06 06:54:23;;;;;;;19.65;9.40;;;;;;;9.05;100.00;99861.72;6396855;27;20043;-68
2024/03/06 06:57:24;;;;;;;18.95;8.80;;;;;;;9.14;100.00;99860.38;6396137;27;20474;-68
2024/03/06 07:00:26;;;;;;;21.30;7.28;;;;;;;9.07;99.79;99869.44;6397659;27;20529;-68
2024/03/06 07:03:29;;;;;;;14.13;6.93;;;;;;;9.19;99.35;99866.13;6396404;27;20046;-69
2024/03/06 07:06:30;;;;;;;14.93;5.38;;;;;;;9.15;100.00;99867.22;6396247;27;20448;-75
2024/03/06 07:09:31;;;;;;;11.35;5.35;;;;;;;9.51;99.54;99871.19;6395972;27;20051;-75
2024/03/06 07:12:32;;;;;;;11.75;5.53;;;;;;;9.54;98.94;99875.41;6396376;27;20054;-75
2024/03/06 07:15:33;;;;;;;8.93;4.97;;;;;;;9.69;97.46;99877.91;6397559;27;20051;-74
2024/03/06 07:18:36;;;;;;;9.40;5.07;;;;;;;9.55;96.98;99867.47;6397133;27;20406;-75
2024/03/06 07:21:37;;;;;;;9.40;5.70;;;;;;;9.63;97.57;99874.84;6396354;27;20078;-75
2024/03/06 07:24:38;;;;;;;9.20;5.18;;;;;;;9.79;96.39;99877.38;6397369;27;20407;-75
2024/03/06 07:27:39;;;;;;;12.10;4.90;;;;;;;10.02;95.98;99873.34;6397300;27;20099;-75
2024/03/06 07:30:40;;;;;;;10.18;5.20;;;;;;;9.92;96.18;99867.84;6395957;27;20051;-74
2024/03/06 07:33:41;;;;;;;10.10;5.15;;;;;;;10.10;94.44;99876.31;6396153;27;20054;-75
2024/03/06 07:36:42;;;;;;;12.65;5.10;;;;;;;10.20;93.11;99877.44;6396957;27;20507;-75
2024/03/06 07:39:45;;;;;;;11.13;5.43;;;;;;;10.36;94.19;99881.72;6397176;27;20107;-74
2024/03/06 07:42:46;;;;;;;11.68;5.68;;;;;;;10.25;93.31;99887.56;6397039;27;20046;-75
2024/03/06 07:45:48;;;;;;;11.38;4.85;;;;;;;10.21;91.82;99878.25;6397009;27;20078;-75
2024/03/06 07:48:51;;;;;;;;;;;;;;;10.36;90.58;99876.50;6397446;27;20095;-75
2024/03/06 07:51:52;;;;;;;9.93;4.95;;;;;;;10.33;91.26;99887.13;6396893;27;19919;-75
2024/03/06 07:54:52;;;;;;;11.25;5.93;;;;;;;10.43;90.02;99890.84;6395687;27;20516;-69
2024/03/06 07:57:53;;;;;;;11.52;4.75;;;;;;;10.37;89.39;99889.44;6396665;27;20078;-69
2024/03/06 08:00:56;;;;;;;8.02;4.55;;;;;;;10.35;88.92;99893.09;6395893;27;20049;-68
2024/03/06 08:03:59;;;;;;;15.40;4.88;;;;;;;10.69;90.03;99891.78;6396787;27;20042;-69
2024/03/06 08:07:00;;;;;;;8.60;4.95;;;;;;;10.55;87.92;99886.63;6397001;27;20070;-68
2024/03/06 08:10:01;;;;;;;9.32;5.20;;;;;;;11.19;85.18;99887.66;6399018;27;20062;-68
2024/03/06 08:13:03;;;;;;;13.68;6.20;;;;;;;11.60;84.67;99893.66;6400329;27;20057;-68
2024/03/06 08:16:07;;;;;;;13.00;6.35;;;;;;;11.53;82.38;99889.78;6400059;27;20137;-69
2024/03/06 08:19:09;;;;;;;12.90;5.93;;;;;;;11.41;81.84;99899.31;6400273;27;20129;-68
2024/03/06 08:22:10;;;;;;;16.50;6.78;;;;;;;11.37;81.92;99895.22;6401499;27;20042;-69
2024/03/06 08:25:14;;;;;;;42.85;18.02;;;;;;;11.54;82.07;99888.84;6401179;27;20047;-68
2024/03/06 08:28:18;;;;;;;18.30;10.98;;;;;;;11.39;81.88;99890.72;6401100;27;20042;-70
2024/03/06 08:31:21;;;;;;;26.38;12.07;;;;;;;11.58;81.48;99900.78;6401027;27;20138;-75
2024/03/06 08:34:22;;;;;;;14.35;7.32;;;;;;;11.86;79.86;99902.31;6401242;27;20062;-75
2024/03/06 08:37:23;;;;;;;19.17;8.77;;;;;;;11.90;79.36;99895.97;6400805;27;20049;-75
2024/03/06 08:40:27;;;;;;;15.32;7.85;;;;;;;11.76;78.79;99904.75;6400739;27;20728;-75
2024/03/06 08:43:27;;;;;;;13.85;7.18;;;;;;;11.54;79.39;99907.97;6400701;27;20130;-75
2024/03/06 08:46:30;;;;;;;18.30;8.73;;;;;;;11.74;77.80;99909.25;6400873;27;20043;-75
2024/03/06 08:49:31;;;;;;;49.67;19.90;;;;;;;11.57;79.64;99907.78;6400566;27;20054;-75
2024/03/06 08:52:32;;;;;;;28.00;11.20;;;;;;;11.64;80.57;99908.19;6399489;27;20133;-75
2024/03/06 08:55:33;;;;;;;32.90;14.93;;;;;;;11.39;79.56;99915.06;6400581;27;20047;-75
2024/03/06 08:58:34;;;;;;;32.40;11.95;;;;;;;11.55;79.62;99899.22;6399042;27;20080;-75
2024/03/06 09:01:35;;;;;;;36.30;11.98;;;;;;;11.45;78.92;99909.44;6400455;27;20043;-75
2024/03/06 09:04:38;;;;;;;46.72;17.30;;;;;;;11.55;78.54;99903.56;6400185;27;20051;-75
2024/03/06 09:07:42;;;;;;;43.58;13.93;;;;;;;11.68;78.67;99907.88;6400294;27;20057;-75
2024/03/06 09:10:45;;;;;;;29.17;10.95;;;;;;;11.63;79.71;99909.97;6398792;27;20082;-75
2024/03/06 09:13:46;;;;;;;46.35;14.65;;;;;;;12.00;78.11;99904.03;6400272;27;20133;-69
2024/03/06 09:16:47;;;;;;;15.18;7.25;;;;;;;12.60;75.29;99905.91;6399792;27;20096;-69
2024/03/06 09:19:48;;;;;;;15.93;6.95;;;;;;;13.34;73.04;99907.53;6398390;27;20077;-69
2024/03/06 09:22:49;;;;;;;14.02;6.85;;;;;;;12.94;71.71;99905.22;6399969;27;20076;-69
2024/03/06 09:25:50;;;;;;;9.48;5.13;;;;;;;12.91;73.57;99911.53;6398602;27;20394;-69
2024/03/06 09:28:51;;;;;;;12.80;6.43;;;;;;;12.78;72.76;99910.75;6398333;27;20046;-69
2024/03/06 09:31:52;;;;;;;9.43;5.63;;;;;;;12.93;71.76;99900.91;6399501;27;20631;-69
2024/03/06 09:34:53;;;;;;;14.00;5.97;;;;;;;13.08;71.27;99898.00;6399583;27;20482;-68
2024/03/06 09:37:54;;;;;;;8.93;5.55;;;;;;;13.06;70.62;99905.16;6398416;27;20049;-75
2024/03/06 09:40:56;;;;;;;13.23;6.00;;;;;;;12.69;71.73;99907.00;6398058;27;20467;-75
2024/03/06 09:43:59;;;;;;;;;;;;;;;12.61;71.16;99909.34;6398589;27;20050;-75
2024/03/06 09:47:06;;;;;;;10.95;5.43;;;;;;;13.11;72.09;99907.44;6398250;27;20171;-75
2024/03/06 09:50:09;;;;;;;12.32;6.22;;;;;;;12.93;71.41;99912.25;6397828;27;20059;-75
2024/03/06 09:53:14;;;;;;;10.77;5.95;;;;;;;12.80;70.74;99912.28;6399239;27;20058;-75
2024/03/06 09:56:15;;;;;;;11.57;6.00;;;;;;;12.78;70.62;99905.50;6398957;27;20142;-75
2024/03/06 09:59:16;;;;;;;10.40;5.97;;;;;;;13.14;70.94;99904.59;6397875;27;20054;-75
2024/03/06 10:02:50;;;;;;;11.88;6.20;;;;;;;12.88;71.37;99901.25;6398994;27;20047;-75
2024/03/06 10:05:55;;;;;;;11.07;5.95;;;;;;;12.98;70.79;99909.28;6397869;27;20126;-69
2024/03/06 10:09:06;;;;;;;10.70;5.82;;;;;;;13.24;70.63;99908.19;6398764;27;20082;-70
2024/03/06 10:12:10;;;;;;;12.80;5.90;;;;;;;13.09;70.76;99906.72;6398657;27;20073;-70
2024/03/06 10:15:12;;;;;;;15.48;6.47;;;;;;;13.29;69.76;99907.88;6398484;27;20418;-75
2024/03/06 10:18:15;;;;;;;12.02;6.57;;;;;;;13.22;70.79;99907.47;6398725;27;20058;-75
2024/03/06 10:21:17;;;;;;;10.50;6.03;;;;;;;13.66;70.19;99898.06;6398417;27;20099;-75
2024/03/06 10:24:26;;;;;;;13.63;6.03;;;;;;;13.57;69.04;99901.41;6398580;27;20554;-75
2024/03/06 10:27:27;;;;;;;13.30;6.75;;;;;;;13.54;68.18;99900.81;6397043;27;20426;-75
2024/03/06 10:30:27;;;;;;;11.32;6.10;;;;;;;13.57;67.92;99898.78;6398402;27;20072;-75
2024/03/06 10:33:29;;;;;;;11.18;6.22;;;;;;;13.77;68.27;99899.88;6396438;27;20047;-75
2024/03/06 10:36:37;;;;;;;14.35;6.57;;;;;;;13.59;68.41;99896.03;6396958;27;20052;-76
2024/03/06 10:39:44;;;;;;;11.75;6.82;;;;;;;14.11;68.13;99902.53;6397961;27;20121;-75
2024/03/06 10:42:45;;;;;;;16.77;7.25;;;;;;;14.98;67.16;99889.47;6398276;27;20046;-75
2024/03/06 10:45:50;;;;;;;17.55;8.15;;;;;;;14.62;65.45;99883.63;6394279;27;20058;-69
2024/03/06 10:48:52;;;;;;;14.15;6.95;;;;;;;15.37;65.04;99884.50;6370489;27;20405;-69
2024/03/06 10:51:57;;;;;;;10.02;6.22;;;;;;;16.09;63.17;99875.72;6372246;27;20083;-69
2024/03/06 10:55:00;;;;;;;18.55;7.20;;;;;;;15.83;64.55;99874.53;6370466;27;20054;-69
2024/03/06 10:58:00;;;;;;;13.82;7.22;;;;;;;15.66;60.99;99876.75;6370360;27;20509;-69
2024/03/06 11:01:03;;;;;;;15.27;6.97;;;;;;;15.58;61.07;99867.88;6371447;27;20055;-69
2024/03/06 11:04:05;;;;;;;16.15;7.50;;;;;;;15.97;62.19;99863.63;6372003;27;20047;-69
2024/03/06 11:07:06;;;;;;;14.52;8.27;;;;;;;15.49;63.25;99851.91;6370431;27;20482;-76
2024/03/06 11:10:07;;;;;;;16.00;6.82;;;;;;;16.11;61.19;99859.81;6371936;27;20059;-76
2024/03/06 11:13:22;;;;;;;12.90;6.90;;;;;;;16.11;61.65;99858.00;6371941;27;20083;-75
2024/03/06 11:16:28;;;;;;;13.50;7.07;;;;;;;15.96;60.03;99862.00;6370341;28;20051;-75
2024/03/06 11:19:31;;;;;;;12.13;6.78;;;;;;;15.82;60.42;99847.38;6370540;28;20082;-75
2024/03/06 11:22:57;;;;;;;14.38;7.05;;;;;;;16.02;59.96;99850.94;6370625;28;20051;-69
2024/03/06 11:26:05;;;;;;;10.07;6.15;;;;;;;15.48;62.37;99841.50;6370414;28;20049;-69
2024/03/06 11:29:07;;;;;;;10.15;5.68;;;;;;;15.76;61.90;99847.91;6370458;28;20093;-69
2024/03/06 11:32:09;;;;;;;11.32;6.25;;;;;;;15.46;62.40;99839.03;6371388;27;20055;-69
2024/03/06 11:35:14;;;;;;;10.63;6.07;;;;;;;15.51;62.27;99846.53;6370680;28;20086;-69
2024/03/06 11:38:22;;;;;;;13.10;7.10;;;;;;;15.73;62.12;99840.31;6370220;28;20482;-69
2024/03/06 11:41:24;;;;;;;14.18;6.18;;;;;;;15.58;62.69;99839.75;6371629;27;20524;-69
2024/03/06 11:44:28;;;;;;;12.63;6.07;;;;;;;15.79;61.18;99826.59;6373767;27;20047;-69
2024/03/06 11:47:29;;;;;;;12.77;6.10;;;;;;;15.81;62.86;99827.28;6376673;27;20051;-71
2024/03/06 11:50:33;;;;;;;10.70;6.35;;;;;;;15.42;62.15;99836.78;6375198;27;20054;-70
2024/03/06 11:53:35;;;;;;;12.82;6.57;;;;;;;15.42;61.73;99828.88;6375128;27;20490;-70
2024/03/06 11:56:36;;;;;;;;;;;;;;;15.44;62.56;99832.22;6375446;27;20403;-69
2024/03/06 11:59:39;;;;;;;14.75;7.30;;;;;;;15.15;63.32;99827.63;6376220;27;20015;-69
2024/03/06 12:02:42;;;;;;;14.07;6.60;;;;;;;14.66;63.26;99832.53;6375089;27;20085;-70
2024/03/06 12:05:46;;;;;;;17.83;6.13;;;;;;;15.07;62.81;99823.03;6376019;27;20051;-70
2024/03/06 12:08:47;;;;;;;9.15;5.65;;;;;;;14.81;63.79;99830.44;6374978;27;20044;-75
2024/03/06 12:11:50;;;;;;;11.63;6.00;;;;;;;14.57;63.80;99824.56;6375773;27;20107;-76
2024/03/06 12:15:03;;;;;;;13.77;6.45;;;;;;;15.01;63.31;99826.16;6374897;27;20198;-75
2024/03/06 12:18:07;;;;;;;12.18;5.90;;;;;;;14.83;63.71;99827.69;6375646;27;20062;-69
2024/03/06 12:21:10;;;;;;;11.45;5.88;;;;;;;14.84;63.92;99822.28;6375815;27;20067;-69
2024/03/06 12:24:16;;;;;;;8.88;5.47;;;;;;;14.91;63.04;99820.84;6374508;27;20047;-69
2024/03/06 12:27:22;;;;;;;10.48;6.00;;;;;;;14.95;63.64;99820.56;6374565;27;20043;-69
2024/03/06 12:30:23;;;;;;;9.30;5.85;;;;;;;15.16;62.73;99815.34;6375377;27;20058;-70
2024/03/06 12:33:24;;;;;;;9.32;5.38;;;;;;;14.63;62.63;99816.19;6375402;27;20384;-69
2024/03/06 12:36:25;;;;;;;11.18;5.72;;;;;;;14.77;62.54;99813.25;6375242;27;20100;-69
2024/03/06 12:39:34;;;;;;;9.13;5.50;;;;;;;15.05;62.66;99813.59;6374054;27;20043;-68
2024/03/06 12:42:35;;;;;;;9.68;5.18;;;;;;;14.97;61.48;99816.88;6375134;27;20054;-68
2024/03/06 12:45:36;;;;;;;11.75;5.22;;;;;;;14.66;62.81;99819.41;6375097;27;20078;-68
2024/03/06 12:48:37;;;;;;;10.60;5.22;;;;;;;15.07;62.86;99809.03;6373856;27;20043;-67
2024/03/06 12:51:41;;;;;;;10.68;6.13;;;;;;;14.62;62.76;99814.50;6373581;27;20449;-70
2024/03/06 12:54:42;;;;;;;10.23;5.25;;;;;;;14.61;63.19;99812.84;6374343;27;20055;-68
2024/03/06 12:57:43;;;;;;;12.90;6.10;;;;;;;14.95;62.79;99816.16;6374772;27;20595;-70
2024/03/06 13:00:44;;;;;;;15.38;8.23;;;;;;;14.95;63.55;99808.28;6373652;27;20096;-70
2024/03/06 13:03:45;;;;;;;11.52;6.28;;;;;;;14.60;63.22;99804.16;6374653;27;20043;-70
2024/03/06 13:06:46;;;;;;;10.23;5.38;;;;;;;14.77;62.48;99809.81;6374847;27;20043;-70
2024/03/06 13:09:47;;;;;;;9.38;5.68;;;;;;;14.70;63.05;99802.44;6373380;27;20181;-67
2024/03/06 13:12:50;;;;;;;8.88;5.55;;;;;;;14.99;62.43;99811.47;6373109;27;20442;-67
2024/03/06 13:15:52;;;;;;;11.80;5.65;;;;;;;15.01;61.92;99806.91;6374403;27;20134;-68
2024/03/06 13:18:56;;;;;;;9.65;6.18;;;;;;;15.05;61.48;99816.22;6373044;27;20045;-68
2024/03/06 13:21:57;;;;;;;12.32;6.07;;;;;;;15.36;60.45;99811.84;6374138;27;20127;-74
2024/03/06 13:24:58;;;;;;;13.50;6.68;;;;;;;14.62;61.59;99809.25;6366192;27;20494;-74
2024/03/06 13:27:59;;;;;;;8.95;5.47;;;;;;;14.34;63.14;99808.03;6360678;27;20062;-76
2024/03/06 13:31:00;;;;;;;9.45;5.50;;;;;;;14.43;63.38;99800.25;6348499;28;20109;-75
2024/03/06 13:34:01;;;;;;;12.20;6.13;;;;;;;14.47;63.07;99800.81;6351441;27;20043;-74
2024/03/06 13:37:06;;;;;;;9.80;5.63;;;;;;;14.36;64.38;99798.22;6371456;27;20043;-74
2024/03/06 13:40:10;;;;;;;11.57;5.97;;;;;;;14.23;64.07;99803.63;6372110;27;20043;-74
2024/03/06 13:43:11;;;;;;;14.10;5.57;;;;;;;14.55;63.47;99792.31;6365104;27;20055;-70
2024/03/06 13:46:12;;;;;;;12.68;5.75;;;;;;;14.73;63.74;99793.47;6348269;28;20613;-70
2024/03/06 13:49:35;;;;;;;11.15;5.50;;;;;;;14.95;63.53;99789.91;6348304;28;20059;-68
2024/03/06 13:52:38;;;;;;;10.05;5.57;;;;;;;14.94;61.89;99777.69;6353437;27;20103;-68
2024/03/06 13:55:40;;;;;;;9.25;5.35;;;;;;;14.96;62.63;99786.28;6373735;27;20061;-67
2024/03/06 13:58:41;;;;;;;9.13;5.80;;;;;;;14.87;61.61;99782.66;6373311;27;20410;-70
2024/03/06 14:01:42;;;;;;;12.57;6.25;;;;;;;14.90;63.62;99776.28;6358420;27;20460;-70
2024/03/06 14:04:43;;;;;;;11.98;6.05;;;;;;;15.08;62.80;99772.13;6347658;28;20051;-70
2024/03/06 14:07:43;;;;;;;10.73;5.85;;;;;;;15.20;61.75;99770.25;6347010;28;20054;-70
2024/03/06 14:10:45;;;;;;;9.35;5.28;;;;;;;15.20;61.00;99777.31;6348707;27;20101;-70